D/T METAR WX W/DIR W/SPE G/SPE TEMP DEWP
31/05/20 05:50 EGVP 310450Z AUTO 04003KT 9999 NCD 12/07 Q1021 NE (40°) 3.5mph 12°C 7°C
31/05/20 04:50 EGVP 310350Z AUTO 02003KT 9999 NCD 12/07 Q1020 NNE (20°) 3.5mph 12°C 7°C
31/05/20 03:50 EGVP 310250Z AUTO 05009KT 9999 NCD 12/07 Q1020 NE (50°) 10.4mph 12°C 7°C
31/05/20 02:50 EGVP 310150Z AUTO 06008KT 9999 NCD 13/07 Q1021 ENE (60°) 9.2mph 13°C 7°C
31/05/20 01:50 EGVP 310050Z AUTO 05007KT 9999 NCD 14/07 Q1021 NE (50°) 8.1mph 14°C 7°C
31/05/20 00:50 EGVP 302350Z AUTO 04007KT 9999 NCD 14/06 Q1021 NE (40°) 8.1mph 14°C 6°C
30/05/20 23:50 EGVP 302250Z AUTO 06010KT 9999 NCD 15/06 Q1021 ENE (60°) 11.5mph 15°C 6°C
30/05/20 22:50 EGVP 302150Z AUTO 07010KT 9999 NCD 16/05 Q1021 ENE (70°) 11.5mph 16°C 5°C
30/05/20 21:50 EGVP 302050Z AUTO 07009KT 9999 NCD 17/05 Q1021 ENE (70°) 10.4mph 17°C 5°C
30/05/20 20:50 EGVP 301950Z AUTO 07008KT 9999 NCD 19/05 Q1020 ENE (70°) 9.2mph 19°C 5°C
30/05/20 19:50 EGVP 301850Z AUTO 08010KT 9999 NCD 21/03 Q1020 E (80°) 11.5mph 21°C 3°C
30/05/20 18:50 EGVP 301750Z AUTO 10012KT 9999 NCD 23/03 Q1020 E (100°) 13.8mph 23°C 3°C
30/05/20 17:50 EGVP 301650Z AUTO 09012KT 9999 NCD 24/04 Q1020 E (90°) 13.8mph 24°C 4°C
30/05/20 16:50 EGVP 301550Z AUTO 08013KT 9999 FEW060/// 24/04 Q1020 E (80°) 15.0mph 24°C 4°C
30/05/20 15:50 EGVP 301450Z AUTO 07007KT 9999 NCD 24/07 Q1020 ENE (70°) 8.1mph 24°C 7°C
30/05/20 14:50 EGVP 301350Z AUTO 10007KT 9999 NCD 24/07 Q1021 E (100°) 8.1mph 24°C 7°C
30/05/20 13:50 EGVP 301250Z AUTO 09010KT 9999 NCD 23/06 Q1021 E (90°) 11.5mph 23°C 6°C
30/05/20 12:50 EGVP 301150Z AUTO 08009KT 9999 FEW050/// 23/07 Q1022 E (80°) 10.4mph 23°C 7°C
30/05/20 11:50 EGVP 301050Z AUTO 07007KT 9999 NCD 21/10 Q1022 RERA ENE (70°) 8.1mph 21°C 10°C
30/05/20 10:50 EGVP 300950Z AUTO 06008KT 9999 NCD 19/10 Q1023 ENE (60°) 9.2mph 19°C 10°C
30/05/20 09:50 EGVP 300850Z AUTO 07008KT 9999 NCD 17/09 Q1023 REDZ ENE (70°) 9.2mph 17°C 9°C
30/05/20 08:50 EGVP 300750Z AUTO 06008KT 9999 NCD 15/09 Q1023 ENE (60°) 9.2mph 15°C 9°C
30/05/20 07:50 EGVP 300650Z AUTO 06008KT 9999 NCD 13/08 Q1023 ENE (60°) 9.2mph 13°C 8°C
30/05/20 06:50 EGVP 300550Z AUTO 05007KT 9999 NCD 11/07 Q1023 NE (50°) 8.1mph 11°C 7°C
30/05/20 05:50 EGVP 300450Z AUTO 36003KT 9999 NCD 10/05 Q1023 N (360°) 3.5mph 10°C 5°C
30/05/20 04:50 EGVP 300350Z AUTO 01003KT 9999 NCD 10/06 Q1023 N (10°) 3.5mph 10°C 6°C
30/05/20 03:50 EGVP 300250Z AUTO 05005KT 9999 NCD 10/05 Q1024 NE (50°) 5.8mph 10°C 5°C
30/05/20 02:50 EGVP 300150Z AUTO 06005KT 9999 NCD 10/03 Q1024 ENE (60°) 5.8mph 10°C 3°C
30/05/20 01:50 EGVP 300050Z AUTO 06006KT 9999 NCD 11/02 Q1024 ENE (60°) 6.9mph 11°C 2°C
30/05/20 00:50 EGVP 292350Z AUTO 07005KT 9999 NCD 12/01 Q1024 ENE (70°) 5.8mph 12°C 1°C
29/05/20 23:50 EGVP 292250Z AUTO 06005KT 9999 NCD 13/01 Q1024 ENE (60°) 5.8mph 13°C 1°C
29/05/20 22:50 EGVP 292150Z AUTO 07007KT 9999 NCD 15/01 Q1024 RERA ENE (70°) 8.1mph 15°C 1°C
29/05/20 21:50 EGVP 292050Z AUTO 07006KT 9999 NCD 17/03 Q1024 ENE (70°) 6.9mph 17°C 3°C
29/05/20 20:50 EGVP 291950Z AUTO 16003KT 9999 NCD 19/05 Q1023 RERA SSE (160°) 3.5mph 19°C 5°C
29/05/20 19:50 EGVP 291850Z AUTO 18004KT 9999 NCD 21/06 Q1023 S (180°) 4.6mph 21°C 6°C
29/05/20 18:50 EGVP 291750Z AUTO 14007KT 9999 NCD 22/07 Q1023 SE (140°) 8.1mph 22°C 7°C
29/05/20 17:50 EGVP 291650Z AUTO 07012KT 9999 NCD 23/06 Q1023 ENE (70°) 13.8mph 23°C 6°C
29/05/20 16:50 EGVP 291550Z 10007KT CAVOK 24/05 Q1024 NOSIG RMK BLU BLU E (100°) 8.1mph 24°C 5°C
29/05/20 16:20 EGVP 291520Z 09008KT CAVOK 24/05 Q1024 NOSIG RMK BLU BLU E (90°) 9.2mph 24°C 5°C
29/05/20 15:21 EGVP 291421Z 09008KT CAVOK 24/05 Q1025 NOSIG RMK BLU BLU E (90°) 9.2mph 24°C 5°C
29/05/20 14:50 EGVP 291350Z 10008KT CAVOK 24/05 Q1025 NOSIG RMK BLU BLU E (100°) 9.2mph 24°C 5°C
29/05/20 14:20 EGVP 291320Z 11009KT CAVOK 23/04 Q1025 NOSIG RMK BLU BLU ESE (110°) 10.4mph 23°C 4°C
29/05/20 13:50 EGVP 291250Z 12006KT CAVOK 23/05 Q1026 NOSIG RMK BLU BLU ESE (120°) 6.9mph 23°C 5°C
29/05/20 13:20 EGVP 291220Z 11008KT CAVOK 22/05 Q1026 NOSIG RMK BLU BLU ESE (110°) 9.2mph 22°C 5°C
29/05/20 12:50 EGVP 291150Z 09009KT CAVOK 21/05 Q1026 NOSIG RMK BLU BLU E (90°) 10.4mph 21°C 5°C
29/05/20 12:20 EGVP 291120Z 08008KT CAVOK 22/08 Q1027 NOSIG RMK BLU BLU E (80°) 9.2mph 22°C 8°C
29/05/20 11:50 EGVP 291050Z 10010KT CAVOK 21/05 Q1027 NOSIG RMK BLU BLU E (100°) 11.5mph 21°C 5°C
29/05/20 11:21 EGVP 291021Z 11010KT CAVOK 21/06 Q1027 NOSIG RMK BLU BLU ESE (110°) 11.5mph 21°C 6°C
29/05/20 10:50 EGVP 290950Z 10009KT CAVOK 21/07 Q1028 NOSIG RMK BLU BLU E (100°) 10.4mph 21°C 7°C
29/05/20 10:21 EGVP 290921Z 10009KT CAVOK 20/08 Q1028 NOSIG RMK BLU BLU E (100°) 10.4mph 20°C 8°C
29/05/20 09:50 EGVP 290850Z 10009KT CAVOK 19/08 Q1028 NOSIG RMK BLU BLU E (100°) 10.4mph 19°C 8°C
29/05/20 09:21 EGVP 290821Z 09006KT CAVOK 17/08 Q1028 NOSIG RMK BLU BLU E (90°) 6.9mph 17°C 8°C
29/05/20 08:50 EGVP 290750Z 09007KT CAVOK 16/08 Q1028 NOSIG RMK BLU BLU E (90°) 8.1mph 16°C 8°C
29/05/20 08:20 EGVP 290720Z 09007KT CAVOK 15/09 Q1028 NOSIG RMK BLU BLU E (90°) 8.1mph 15°C 9°C
29/05/20 06:50 EGVP 290550Z 07005KT CAVOK 12/08 Q1028 RMK BLU ENE (70°) 5.8mph 12°C 8°C
29/05/20 05:50 EGVP 290450Z 05004KT CAVOK 10/07 Q1028 RMK BLU NE (50°) 4.6mph 10°C 7°C
29/05/20 04:50 EGVP 290350Z AUTO 03003KT 9999 NCD 10/07 Q1028 NNE (30°) 3.5mph 10°C 7°C
29/05/20 03:50 EGVP 290250Z AUTO 06005KT 9999 NCD 10/07 Q1029 ENE (60°) 5.8mph 10°C 7°C
29/05/20 02:50 EGVP 290150Z AUTO 05005KT 9999 NCD 11/07 Q1029 NE (50°) 5.8mph 11°C 7°C
29/05/20 01:50 EGVP 290050Z AUTO 06007KT 9999 NCD 11/06 Q1029 ENE (60°) 8.1mph 11°C 6°C
29/05/20 00:50 EGVP 282350Z AUTO 06008KT 9999 NCD 12/05 Q1029 ENE (60°) 9.2mph 12°C 5°C
28/05/20 23:50 EGVP 282250Z AUTO 07008KT 9999 NCD 13/03 Q1030 ENE (70°) 9.2mph 13°C 3°C
28/05/20 22:50 EGVP 282150Z AUTO 06008KT 9999 NCD 14/02 Q1030 ENE (60°) 9.2mph 14°C 2°C
28/05/20 21:50 EGVP 282050Z AUTO 08008KT 9999 NCD 15/03 Q1030 E (80°) 9.2mph 15°C 3°C
28/05/20 20:50 EGVP 281950Z AUTO 07009KT 9999 NCD 17/04 Q1030 ENE (70°) 10.4mph 17°C 4°C
28/05/20 19:50 EGVP 281850Z AUTO 08011KT 9999 NCD 20/05 Q1029 E (80°) 12.7mph 20°C 5°C
28/05/20 18:50 EGVP 281750Z AUTO 07012KT 9999 NCD 21/06 Q1029 ENE (70°) 13.8mph 21°C 6°C
28/05/20 17:50 EGVP 281650Z 07011KT CAVOK 22/06 Q1030 NOSIG RMK BLU BLU ENE (70°) 12.7mph 22°C 6°C
28/05/20 17:20 EGVP 281620Z 08008KT CAVOK 22/05 Q1030 NOSIG RMK BLU BLU E (80°) 9.2mph 22°C 5°C
28/05/20 16:50 EGVP 281550Z 07009KT CAVOK 22/05 Q1030 NOSIG RMK BLU BLU ENE (70°) 10.4mph 22°C 5°C
28/05/20 16:20 EGVP 281520Z 07010KT CAVOK 23/05 Q1030 NOSIG RMK BLU BLU ENE (70°) 11.5mph 23°C 5°C
28/05/20 15:50 EGVP 281450Z 06010KT CAVOK 22/05 Q1030 NOSIG RMK BLU BLU ENE (60°) 11.5mph 22°C 5°C
28/05/20 15:20 EGVP 281420Z 09009KT CAVOK 23/06 Q1031 NOSIG RMK BLU BLU E (90°) 10.4mph 23°C 6°C
28/05/20 14:50 EGVP 281350Z 07009KT CAVOK 22/06 Q1031 NOSIG RMK BLU BLU ENE (70°) 10.4mph 22°C 6°C
28/05/20 14:20 EGVP 281320Z 07007KT CAVOK 22/06 Q1032 NOSIG RMK BLU BLU ENE (70°) 8.1mph 22°C 6°C
28/05/20 13:50 EGVP 281250Z 09008KT CAVOK 21/04 Q1032 NOSIG RMK BLU BLU E (90°) 9.2mph 21°C 4°C
28/05/20 13:20 EGVP 281220Z 08008KT CAVOK 21/06 Q1032 NOSIG RMK BLU BLU E (80°) 9.2mph 21°C 6°C
28/05/20 12:50 EGVP 281150Z 09008KT CAVOK 21/06 Q1032 NOSIG RMK BLU BLU E (90°) 9.2mph 21°C 6°C
28/05/20 12:20 EGVP 281120Z 05008KT CAVOK 20/07 Q1033 NOSIG RMK BLU BLU NE (50°) 9.2mph 20°C 7°C
28/05/20 11:50 EGVP 281050Z 07008KT 9999 FEW045 SCT350 20/07 Q1033 NOSIG RMK BLU BLU ENE (70°) 9.2mph 20°C 7°C
28/05/20 11:20 EGVP 281020Z 09007KT 9999 FEW040 SCT350 19/09 Q1033 NOSIG RMK BLU BLU E (90°) 8.1mph 19°C 9°C
28/05/20 10:50 EGVP 280950Z 09008KT 9999 FEW040 SCT350 18/08 Q1034 NOSIG RMK BLU BLU E (90°) 9.2mph 18°C 8°C
28/05/20 10:20 EGVP 280920Z 08008KT CAVOK 18/10 Q1034 NOSIG RMK BLU BLU E (80°) 9.2mph 18°C 10°C
28/05/20 09:50 EGVP 280850Z 09010KT CAVOK 17/09 Q1034 NOSIG RMK BLU BLU E (90°) 11.5mph 17°C 9°C
28/05/20 09:20 EGVP 280820Z 07010KT CAVOK 16/09 Q1034 NOSIG RMK BLU BLU ENE (70°) 11.5mph 16°C 9°C
28/05/20 08:50 EGVP 280750Z 07007KT CAVOK 16/10 Q1034 NOSIG RMK BLU BLU ENE (70°) 8.1mph 16°C 10°C
28/05/20 08:20 EGVP 280720Z 07009KT CAVOK 15/09 Q1034 NOSIG RMK BLU BLU ENE (70°) 10.4mph 15°C 9°C
28/05/20 07:50 EGVP 280650Z AUTO 08009KT 9999 NCD 14/10 Q1035 E (80°) 10.4mph 14°C 10°C
28/05/20 06:50 EGVP 280550Z AUTO 06005KT 9999 SCT038/// 13/10 Q1035 ENE (60°) 5.8mph 13°C 10°C
28/05/20 05:50 EGVP 280450Z AUTO 05007KT 9999 NCD 12/10 Q1035 NE (50°) 8.1mph 12°C 10°C
28/05/20 04:50 EGVP 280350Z AUTO 04004KT 9999 NCD 12/09 Q1034 NE (40°) 4.6mph 12°C 9°C
28/05/20 03:50 EGVP 280250Z AUTO 01002KT 9999 NCD 11/08 Q1034 N (10°) 2.3mph 11°C 8°C
28/05/20 02:50 EGVP 280150Z AUTO 07002KT 9999 NCD 12/09 Q1034 ENE (70°) 2.3mph 12°C 9°C
28/05/20 01:50 EGVP 280050Z AUTO 08004KT 9999 NCD 12/09 Q1035 E (80°) 4.6mph 12°C 9°C
28/05/20 00:50 EGVP 272350Z AUTO 08003KT 9999 NCD 14/09 Q1035 E (80°) 3.5mph 14°C 9°C
27/05/20 23:50 EGVP 272250Z AUTO 05001KT 9999 NCD 15/08 Q1035 NE (50°) 1.2mph 15°C 8°C